createdAt,value
2019-02-19T00:00:13.632Z,8.60
2019-02-19T00:01:13.543Z,7.90
2019-02-19T00:02:13.484Z,8.90
2019-02-19T00:03:13.444Z,7.60
2019-02-19T00:04:13.395Z,8.30
2019-02-19T00:05:13.353Z,7.90
2019-02-19T00:06:13.342Z,8.20
2019-02-19T00:07:13.275Z,8.20
2019-02-19T00:08:13.228Z,8.40
2019-02-19T00:09:13.190Z,7.90
2019-02-19T00:10:13.131Z,7.60
2019-02-19T00:11:13.117Z,7.80
2019-02-19T00:12:13.051Z,7.90
2019-02-19T00:13:13.031Z,7.80
2019-02-19T00:14:12.956Z,7.80
2019-02-19T00:15:12.919Z,7.90
2019-02-19T00:16:12.897Z,7.50
2019-02-19T00:17:12.829Z,7.80
2019-02-19T00:18:12.789Z,7.80
2019-02-19T00:19:12.749Z,7.90
2019-02-19T00:20:12.710Z,7.30
2019-02-19T00:21:12.679Z,7.90
2019-02-19T00:22:12.604Z,8.10
2019-02-19T00:23:12.567Z,8.10
2019-02-19T00:24:12.517Z,7.70
2019-02-19T00:25:12.477Z,7.80
2019-02-19T00:26:12.464Z,7.80
2019-02-19T00:27:12.400Z,7.20
2019-02-19T00:28:12.344Z,7.40
2019-02-19T00:29:12.302Z,8.10
2019-02-19T00:30:12.278Z,7.50
2019-02-19T00:31:12.251Z,7.70
2019-02-19T00:32:12.182Z,7.50
2019-02-19T00:33:12.134Z,7.40
2019-02-19T00:34:12.082Z,7.50
2019-02-19T00:35:12.043Z,7.80
2019-02-19T00:36:11.998Z,7.80
2019-02-19T00:37:11.976Z,7.40
2019-02-19T00:38:11.921Z,7.10
2019-02-19T00:39:11.874Z,7.40
2019-02-19T00:40:11.831Z,7.50
2019-02-19T00:41:11.814Z,6.90
2019-02-19T00:42:11.738Z,7.00
2019-02-19T00:43:11.691Z,7.30
2019-02-19T00:44:11.659Z,7.40
2019-02-19T00:45:16.609Z,7.80
2019-02-19T00:46:11.565Z,7.10
2019-02-19T00:47:11.545Z,7.00
2019-02-19T00:48:11.498Z,7.60
2019-02-19T00:49:11.432Z,7.20
2019-02-19T00:50:11.397Z,7.20
2019-02-19T00:51:11.356Z,7.80
2019-02-19T00:52:11.311Z,7.00
2019-02-19T00:53:11.292Z,7.50
2019-02-19T00:54:11.241Z,7.40
2019-02-19T00:55:11.196Z,7.20
2019-02-19T00:56:11.130Z,7.60
2019-02-19T00:57:11.089Z,7.40
2019-02-19T00:58:11.051Z,7.40
2019-02-19T00:59:11.030Z,7.60
2019-02-19T01:00:10.981Z,7.30
2019-02-19T01:01:10.912Z,7.70
2019-02-19T01:02:10.876Z,7.40
2019-02-19T01:03:10.859Z,7.50
2019-02-19T01:04:10.792Z,7.50
2019-02-19T01:05:10.745Z,7.70
2019-02-19T01:06:10.694Z,7.90
2019-02-19T01:07:10.652Z,7.50
2019-02-19T01:08:10.632Z,7.40
2019-02-19T01:09:10.564Z,7.50
2019-02-19T01:10:10.536Z,7.90
2019-02-19T01:11:10.487Z,7.60
2019-02-19T01:12:10.445Z,7.80
2019-02-19T01:13:10.400Z,7.60
2019-02-19T01:14:10.377Z,7.60
2019-02-19T01:15:10.308Z,7.70
2019-02-19T01:16:10.772Z,7.50
2019-02-19T01:17:10.256Z,8.30
2019-02-19T01:18:10.178Z,7.30
2019-02-19T01:19:10.134Z,7.70
2019-02-19T01:20:10.089Z,7.90
2019-02-19T01:21:10.048Z,7.90
2019-02-19T01:22:10.013Z,8.20
2019-02-19T01:23:09.989Z,7.90
2019-02-19T01:24:09.925Z,7.60
2019-02-19T01:25:09.879Z,7.80
2019-02-19T01:26:09.831Z,7.70
2019-02-19T01:27:09.791Z,7.60
2019-02-19T01:28:09.775Z,8.10
2019-02-19T01:29:09.704Z,8.00
2019-02-19T01:30:09.664Z,7.90
2019-02-19T01:31:09.620Z,8.40
2019-02-19T01:32:09.567Z,7.70
2019-02-19T01:33:09.527Z,7.40
2019-02-19T01:34:09.513Z,7.90
2019-02-19T01:35:09.446Z,7.50
2019-02-19T01:36:09.407Z,7.40
2019-02-19T01:37:09.359Z,8.20
2019-02-19T01:38:09.309Z,7.90
2019-02-19T01:39:09.302Z,7.20
2019-02-19T01:40:09.220Z,7.80
2019-02-19T01:41:09.180Z,7.50
2019-02-19T01:42:09.141Z,7.90
2019-02-19T01:43:09.100Z,7.90
2019-02-19T01:44:09.055Z,8.00
2019-02-19T01:45:09.043Z,7.60
2019-02-19T01:46:08.973Z,7.80
2019-02-19T01:47:08.920Z,7.60
2019-02-19T01:48:08.880Z,7.90
2019-02-19T01:49:08.863Z,7.90
2019-02-19T01:50:08.789Z,7.50
2019-02-19T01:51:08.785Z,7.70
2019-02-19T01:52:08.702Z,7.50
2019-02-19T01:53:08.659Z,7.60
2019-02-19T01:54:08.639Z,7.40
2019-02-19T01:55:08.577Z,7.20
2019-02-19T01:56:08.538Z,7.90
2019-02-19T01:57:08.490Z,7.60
2019-02-19T01:58:08.440Z,7.50
2019-02-19T01:59:08.419Z,8.30
2019-02-19T02:00:08.352Z,7.90
2019-02-19T02:01:08.310Z,7.60
2019-02-19T02:02:08.297Z,7.20
2019-02-19T02:03:08.235Z,7.20
2019-02-19T02:04:08.200Z,7.40
2019-02-19T02:05:08.137Z,7.60
2019-02-19T02:06:08.104Z,7.60
2019-02-19T02:07:08.081Z,7.50
2019-02-19T02:08:08.038Z,8.00
2019-02-19T02:09:07.972Z,7.70
2019-02-19T02:10:07.922Z,7.80
2019-02-19T02:11:07.880Z,8.30
2019-02-19T02:12:07.831Z,7.50
2019-02-19T02:13:07.816Z,7.80
2019-02-19T02:14:07.755Z,8.00
2019-02-19T02:15:07.715Z,8.40
2019-02-19T02:16:07.663Z,8.10
2019-02-19T02:17:07.645Z,7.80
2019-02-19T02:18:07.572Z,7.70
2019-02-19T02:19:07.531Z,8.40
2019-02-19T02:20:07.495Z,8.00
2019-02-19T02:21:07.451Z,7.90
2019-02-19T02:22:07.429Z,8.70
2019-02-19T02:23:07.361Z,8.60
2019-02-19T02:24:07.311Z,8.70
2019-02-19T02:25:07.273Z,9.00
2019-02-19T02:26:07.235Z,9.40
2019-02-19T02:27:07.192Z,9.00
2019-02-19T02:28:07.173Z,9.30
2019-02-19T02:29:07.112Z,8.70
2019-02-19T02:30:07.055Z,8.90
2019-02-19T02:31:07.013Z,9.70
2019-02-19T02:32:06.970Z,10.00
2019-02-19T02:33:06.954Z,10.30
2019-02-19T02:34:06.898Z,11.20
2019-02-19T02:35:06.844Z,11.40
2019-02-19T02:36:06.794Z,11.90
2019-02-19T02:37:06.752Z,11.40
2019-02-19T02:38:06.719Z,11.80
2019-02-19T02:39:06.702Z,11.50
2019-02-19T02:40:06.632Z,11.50
2019-02-19T02:41:06.593Z,11.60
2019-02-19T02:42:06.537Z,14.70
2019-02-19T02:43:06.497Z,13.70
2019-02-19T02:44:06.477Z,14.70
2019-02-19T02:45:06.411Z,14.30
2019-02-19T02:46:06.373Z,14.80
2019-02-19T02:47:06.332Z,15.30
2019-02-19T02:48:06.288Z,15.80
2019-02-19T02:49:06.264Z,16.40
2019-02-19T02:50:06.198Z,16.20
2019-02-19T02:51:06.153Z,16.20
2019-02-19T02:52:06.113Z,16.90
2019-02-19T02:53:06.069Z,17.60
2019-02-19T02:54:06.050Z,18.20
2019-02-19T02:55:05.980Z,18.10
2019-02-19T02:56:05.935Z,17.90
2019-02-19T02:57:05.889Z,18.90
2019-02-19T02:58:05.859Z,18.70
2019-02-19T02:59:05.815Z,18.50
2019-02-19T03:00:05.798Z,18.50
2019-02-19T03:01:05.730Z,18.60
2019-02-19T03:02:05.682Z,18.70
2019-02-19T03:03:05.648Z,18.60
2019-02-19T03:04:05.593Z,19.90
2019-02-19T03:05:05.551Z,20.10
2019-02-19T03:06:05.540Z,19.50
2019-02-19T03:07:05.469Z,20.30
2019-02-19T03:08:05.420Z,20.50
2019-02-19T03:09:05.377Z,20.20
2019-02-19T03:10:05.345Z,20.90
2019-02-19T03:11:05.320Z,20.40
2019-02-19T03:12:05.255Z,20.40
2019-02-19T03:13:05.214Z,21.10
2019-02-19T03:14:05.164Z,21.30
2019-02-19T03:15:05.152Z,21.90
2019-02-19T03:16:05.082Z,21.60
2019-02-19T03:17:05.037Z,21.40
2019-02-19T03:18:05.000Z,22.20
2019-02-19T03:19:04.961Z,21.30
2019-02-19T03:20:04.986Z,21.50
2019-02-19T03:21:04.874Z,22.00
2019-02-19T03:22:04.821Z,21.00
2019-02-19T03:23:04.784Z,21.20
2019-02-19T03:24:04.744Z,22.80
2019-02-19T03:25:04.728Z,21.10
2019-02-19T03:26:04.651Z,21.40
2019-02-19T03:27:04.608Z,21.60
2019-02-19T03:28:04.565Z,21.80
2019-02-19T03:29:04.524Z,21.50
2019-02-19T03:30:04.485Z,21.80
2019-02-19T03:31:04.471Z,21.90
2019-02-19T03:32:04.424Z,21.30
2019-02-19T03:33:04.366Z,21.10
2019-02-19T03:34:04.317Z,22.70
2019-02-19T03:35:04.268Z,21.60
2019-02-19T03:36:04.245Z,21.70
2019-02-19T03:37:04.180Z,21.20
2019-02-19T03:38:04.144Z,20.70
2019-02-19T03:39:04.115Z,20.50
2019-02-19T03:40:04.061Z,20.40
2019-02-19T03:41:04.031Z,19.60
2019-02-19T03:42:04.007Z,20.50
2019-02-19T03:43:03.935Z,20.70
2019-02-19T03:44:03.886Z,19.50
2019-02-19T03:45:03.846Z,19.60
2019-02-19T03:46:11.793Z,19.40
2019-02-19T03:47:03.754Z,19.90
2019-02-19T03:48:03.758Z,19.40
2019-02-19T03:49:03.666Z,19.70
2019-02-19T03:50:03.629Z,20.10
2019-02-19T03:51:03.636Z,20.40
2019-02-19T03:52:03.551Z,20.10
2019-02-19T03:53:03.531Z,19.50
2019-02-19T03:54:03.450Z,18.50
2019-02-19T03:55:03.410Z,19.90
2019-02-19T03:56:03.374Z,20.20
2019-02-19T03:57:03.352Z,18.50
2019-02-19T03:58:03.340Z,18.60
2019-02-19T03:59:03.241Z,18.70
2019-02-19T04:00:03.194Z,18.70
2019-02-19T04:01:03.174Z,18.90
2019-02-19T04:02:03.117Z,19.00
2019-02-19T04:03:03.079Z,18.70
2019-02-19T04:04:03.032Z,18.40
2019-02-19T04:05:02.986Z,19.00
2019-02-19T04:06:02.959Z,18.90
2019-02-19T04:07:02.898Z,18.80
2019-02-19T04:08:02.858Z,19.00
2019-02-19T04:09:02.807Z,19.40
2019-02-19T04:10:02.772Z,20.00
2019-02-19T04:11:02.758Z,19.70
2019-02-19T04:12:02.677Z,19.70
2019-02-19T04:13:02.658Z,20.60
2019-02-19T04:14:02.617Z,20.80
2019-02-19T04:15:02.562Z,20.70
2019-02-19T04:16:02.509Z,20.40
2019-02-19T04:17:02.474Z,20.90
2019-02-19T04:18:02.446Z,20.20
2019-02-19T04:19:02.380Z,21.20
2019-02-19T04:20:02.335Z,20.60
2019-02-19T04:21:02.312Z,20.40
2019-02-19T04:22:02.257Z,20.10
2019-02-19T04:23:02.214Z,21.10
2019-02-19T04:24:02.170Z,20.50
2019-02-19T04:25:02.137Z,20.40
2019-02-19T04:26:02.099Z,21.20
2019-02-19T04:27:02.033Z,21.00
2019-02-19T04:28:02.002Z,19.90
2019-02-19T04:29:01.960Z,20.40
2019-02-19T04:30:01.907Z,20.30
2019-02-19T04:31:01.891Z,20.80
2019-02-19T04:32:01.829Z,21.00
2019-02-19T04:33:01.776Z,21.00
2019-02-19T04:34:01.764Z,20.90
2019-02-19T04:35:01.707Z,20.40
2019-02-19T04:36:01.651Z,21.20
2019-02-19T04:37:01.611Z,21.70
2019-02-19T04:38:01.559Z,21.70
2019-02-19T04:39:01.515Z,22.30
2019-02-19T04:40:01.502Z,21.40
2019-02-19T04:41:01.427Z,21.10
2019-02-19T04:42:01.393Z,22.20
2019-02-19T04:43:01.351Z,21.10
2019-02-19T04:44:01.300Z,22.00
2019-02-19T04:45:01.258Z,22.60
2019-02-19T04:46:01.258Z,23.30
2019-02-19T04:47:01.181Z,22.60
2019-02-19T04:48:01.132Z,22.30
2019-02-19T04:49:01.096Z,23.00
2019-02-19T04:50:01.046Z,22.60
2019-02-19T04:51:00.998Z,23.50
2019-02-19T04:52:00.976Z,23.30
2019-02-19T04:53:00.913Z,23.30
2019-02-19T04:54:00.886Z,23.00
2019-02-19T04:55:00.866Z,23.70
2019-02-19T04:56:00.791Z,24.10
2019-02-19T04:57:00.756Z,24.20
2019-02-19T04:58:00.700Z,23.70
2019-02-19T04:59:00.655Z,24.10
2019-02-19T05:00:00.692Z,23.50
2019-02-19T05:01:00.603Z,23.10
2019-02-19T05:02:00.524Z,24.30
2019-02-19T05:03:00.480Z,25.00
2019-02-19T05:04:00.437Z,24.50
2019-02-19T05:05:00.409Z,24.70
2019-02-19T05:06:00.394Z,24.30
2019-02-19T05:07:00.317Z,25.30
2019-02-19T05:08:00.275Z,23.60
2019-02-19T05:09:00.255Z,24.90
2019-02-19T05:10:00.362Z,24.50
2019-02-19T05:11:00.138Z,24.70
2019-02-19T05:12:00.114Z,25.20
2019-02-19T05:13:00.044Z,25.40
2019-02-19T05:14:00.016Z,25.30
2019-02-19T05:14:59.971Z,25.50
2019-02-19T05:15:59.948Z,25.40
2019-02-19T05:16:59.898Z,25.90
2019-02-19T05:17:59.839Z,26.10
2019-02-19T05:18:59.796Z,25.90
2019-02-19T05:19:59.758Z,25.80
2019-02-19T05:20:59.709Z,25.10
2019-02-19T05:21:59.682Z,26.90
2019-02-19T05:22:59.623Z,27.20
2019-02-19T05:23:59.616Z,27.30
2019-02-19T05:24:59.535Z,26.20
2019-02-19T05:25:59.483Z,27.60
2019-02-19T05:26:59.445Z,27.10
2019-02-19T05:27:59.402Z,26.70
2019-02-19T05:28:59.362Z,27.40
2019-02-19T05:29:59.348Z,28.80
2019-02-19T05:30:59.278Z,27.30
2019-02-19T05:31:59.228Z,27.60
2019-02-19T05:32:59.185Z,27.60
2019-02-19T05:33:59.173Z,28.60
2019-02-19T05:34:59.113Z,28.70
2019-02-19T05:35:59.061Z,28.50
2019-02-19T05:36:59.024Z,28.50
2019-02-19T05:37:58.990Z,29.60
2019-02-19T05:38:58.952Z,28.80
2019-02-19T05:39:58.897Z,29.00
2019-02-19T05:40:58.839Z,29.70
2019-02-19T05:41:58.807Z,29.50
2019-02-19T05:42:58.763Z,28.70
2019-02-19T05:43:58.744Z,30.90
2019-02-19T05:44:58.678Z,30.50
2019-02-19T05:45:58.625Z,31.00
2019-02-19T05:46:58.584Z,30.60
2019-02-19T05:47:58.547Z,30.10
2019-02-19T05:48:58.509Z,30.70
2019-02-19T05:49:58.491Z,31.10
2019-02-19T05:50:58.410Z,31.10
2019-02-19T05:51:58.364Z,31.50
2019-02-19T05:52:58.325Z,32.00
2019-02-19T05:53:58.310Z,31.80
2019-02-19T05:54:58.263Z,31.70
2019-02-19T05:55:58.202Z,32.60
2019-02-19T05:56:58.161Z,29.60
2019-02-19T05:57:58.117Z,28.60
2019-02-19T05:58:58.084Z,28.80
2019-02-19T05:59:58.042Z,29.20
2019-02-19T06:00:57.978Z,28.70
2019-02-19T06:01:57.938Z,29.80
2019-02-19T06:02:57.898Z,30.60
2019-02-19T06:03:57.842Z,31.90
2019-02-19T06:04:57.829Z,30.00
2019-02-19T06:05:57.769Z,32.10
2019-02-19T06:06:57.751Z,31.50
2019-02-19T06:07:57.679Z,30.40
2019-02-19T06:08:57.638Z,29.90
2019-02-19T06:09:57.588Z,31.80
2019-02-19T06:10:57.545Z,30.40
2019-02-19T06:11:57.501Z,31.00
2019-02-19T06:12:57.511Z,30.90
2019-02-19T06:13:57.424Z,31.20
2019-02-19T06:14:57.406Z,31.00
2019-02-19T06:15:57.338Z,30.50
2019-02-19T06:16:58.838Z,32.40
2019-02-19T06:17:57.244Z,32.30
2019-02-19T06:18:57.198Z,32.30
2019-02-19T06:19:57.164Z,31.90
2019-02-19T06:20:57.139Z,30.50
2019-02-19T06:21:57.092Z,32.30
2019-02-19T06:22:57.026Z,31.90
2019-02-19T06:23:56.982Z,32.50
2019-02-19T06:24:56.943Z,32.10
2019-02-19T06:25:56.926Z,32.00
2019-02-19T06:26:56.882Z,32.20
2019-02-19T06:27:56.816Z,31.70
2019-02-19T06:28:57.779Z,31.00
2019-02-19T06:29:56.723Z,30.70
2019-02-19T06:30:56.706Z,32.10
2019-02-19T06:31:56.637Z,31.90
2019-02-19T06:32:56.594Z,31.40
2019-02-19T06:33:56.556Z,30.70
2019-02-19T06:34:56.515Z,30.40
2019-02-19T06:35:56.492Z,29.80
2019-02-19T06:36:56.423Z,28.90
2019-02-19T06:37:56.390Z,29.70
2019-02-19T06:38:56.350Z,29.40
2019-02-19T06:39:56.338Z,28.80
2019-02-19T06:40:56.255Z,30.20
2019-02-19T06:41:56.233Z,30.20
2019-02-19T06:42:56.161Z,28.10
2019-02-19T06:43:56.131Z,29.30
2019-02-19T06:44:56.074Z,28.00
2019-02-19T06:45:56.040Z,29.90
2019-02-19T06:46:55.997Z,28.60
2019-02-19T06:47:55.979Z,29.90
2019-02-19T06:48:55.912Z,29.20
2019-02-19T06:49:55.862Z,30.20
2019-02-19T06:50:55.820Z,30.10
2019-02-19T06:51:55.783Z,30.30
2019-02-19T06:52:55.736Z,31.20
2019-02-19T06:53:55.708Z,30.50
2019-02-19T06:54:55.651Z,29.70
2019-02-19T06:55:55.603Z,31.20
2019-02-19T06:56:55.555Z,31.10
2019-02-19T06:57:55.543Z,29.90
2019-02-19T06:58:55.486Z,31.90
2019-02-19T06:59:55.437Z,30.40
2019-02-19T07:00:55.390Z,30.60
2019-02-19T07:01:55.366Z,30.70
2019-02-19T07:02:55.320Z,30.60
2019-02-19T07:03:55.257Z,30.60
2019-02-19T07:04:55.207Z,30.00
2019-02-19T07:05:55.174Z,29.60
2019-02-19T07:06:55.168Z,29.50
2019-02-19T07:07:55.086Z,30.50
2019-02-19T07:08:55.040Z,30.50
2019-02-19T07:09:55.015Z,30.30
2019-02-19T07:10:54.958Z,30.70
2019-02-19T07:11:54.937Z,30.50
2019-02-19T07:12:54.870Z,29.70
2019-02-19T07:13:54.849Z,29.60
2019-02-19T07:14:54.779Z,29.60
2019-02-19T07:15:54.733Z,30.30
2019-02-19T07:16:54.693Z,30.70
2019-02-19T07:17:54.681Z,30.00
2019-02-19T07:18:54.612Z,29.40
2019-02-19T07:19:54.568Z,29.70
2019-02-19T07:20:54.526Z,29.20
2019-02-19T07:21:54.505Z,29.30
2019-02-19T07:22:54.433Z,29.60
2019-02-19T07:24:03.893Z,28.70
2019-02-19T07:24:54.357Z,28.70
2019-02-19T07:25:54.322Z,29.50
2019-02-19T07:26:54.285Z,28.70
2019-02-19T07:27:54.217Z,28.70
2019-02-19T07:28:54.174Z,29.10
2019-02-19T07:29:54.136Z,28.50
2019-02-19T07:30:54.120Z,28.20
2019-02-19T07:31:54.057Z,28.00
2019-02-19T07:32:54.022Z,28.30
2019-02-19T07:33:53.961Z,28.50
2019-02-19T07:34:53.941Z,27.70
2019-02-19T07:35:53.907Z,28.80
2019-02-19T07:36:53.858Z,28.90
2019-02-19T07:37:53.801Z,27.60
2019-02-19T07:38:53.750Z,28.40
2019-02-19T07:39:53.706Z,27.90
2019-02-19T07:40:53.683Z,27.80
2019-02-19T07:41:53.625Z,27.90
2019-02-19T07:42:53.633Z,26.90
2019-02-19T07:43:54.214Z,27.50
2019-02-19T07:44:53.518Z,28.70
2019-02-19T07:45:53.448Z,27.60
2019-02-19T07:46:53.408Z,27.20
2019-02-19T07:47:53.391Z,27.90
2019-02-19T07:48:53.332Z,27.70
2019-02-19T07:49:53.281Z,26.90
2019-02-19T07:50:53.270Z,27.40
2019-02-19T07:51:53.192Z,27.10
2019-02-19T07:52:53.169Z,27.20
2019-02-19T07:53:53.106Z,26.70
2019-02-19T07:54:53.060Z,26.60
2019-02-19T07:55:53.151Z,26.70
2019-02-19T07:56:52.997Z,27.00
2019-02-19T07:57:52.969Z,27.40
2019-02-19T07:58:52.981Z,26.00
2019-02-19T07:59:53.030Z,26.50
2019-02-19T08:00:52.831Z,25.70
2019-02-19T08:01:52.774Z,25.60
2019-02-19T08:02:52.729Z,24.90
2019-02-19T08:03:52.769Z,24.90
2019-02-19T08:04:52.642Z,25.50
2019-02-19T08:05:52.609Z,25.50
2019-02-19T08:06:52.552Z,25.90
2019-02-19T08:07:52.502Z,24.90
2019-02-19T08:08:52.456Z,25.70
2019-02-19T08:09:52.425Z,25.50
2019-02-19T08:10:52.406Z,25.90
2019-02-19T08:11:52.337Z,25.40
2019-02-19T08:12:52.297Z,26.10
2019-02-19T08:13:52.248Z,25.80
2019-02-19T08:14:52.236Z,26.00
2019-02-19T08:15:52.164Z,26.00
2019-02-19T08:16:52.119Z,25.50
2019-02-19T08:17:52.106Z,25.40
2019-02-19T08:18:52.042Z,26.30
2019-02-19T08:19:52.018Z,26.30
2019-02-19T08:20:51.948Z,24.80
2019-02-19T08:21:51.949Z,25.10
2019-02-19T08:22:51.865Z,24.80
2019-02-19T08:23:51.826Z,25.90
2019-02-19T08:24:51.779Z,25.00
2019-02-19T08:25:51.731Z,25.00
2019-02-19T08:26:51.711Z,26.10
2019-02-19T08:27:51.649Z,24.80
2019-02-19T08:28:51.608Z,25.40
2019-02-19T08:29:51.584Z,25.60
2019-02-19T08:30:51.522Z,25.50
2019-02-19T08:31:51.505Z,25.90
2019-02-19T08:32:51.433Z,25.70
2019-02-19T08:33:51.400Z,24.70
2019-02-19T08:34:51.362Z,24.10
2019-02-19T08:35:51.315Z,24.50
2019-02-19T08:36:51.269Z,24.40
2019-02-19T08:37:51.240Z,24.30
2019-02-19T08:38:51.179Z,23.70
2019-02-19T08:39:51.159Z,24.00
2019-02-19T08:40:51.091Z,24.50
2019-02-19T08:41:51.055Z,24.10
2019-02-19T08:42:51.016Z,24.00
2019-02-19T08:43:50.977Z,23.50
2019-02-19T08:44:50.952Z,23.20
2019-02-19T08:45:50.896Z,22.80
2019-02-19T08:46:50.869Z,22.50
2019-02-19T08:47:50.799Z,22.10
2019-02-19T08:48:50.762Z,22.20
2019-02-19T08:49:50.733Z,21.50
2019-02-19T08:50:50.678Z,21.00
2019-02-19T08:51:56.052Z,21.00
2019-02-19T08:52:50.609Z,20.10
2019-02-19T08:53:50.554Z,19.70
2019-02-19T08:54:50.535Z,19.10
2019-02-19T08:55:50.472Z,19.30
2019-02-19T08:56:50.431Z,18.50
2019-02-19T08:57:50.382Z,19.20
2019-02-19T08:58:50.344Z,18.70
2019-02-19T08:59:50.326Z,17.40
2019-02-19T09:00:50.278Z,17.30
2019-02-19T09:01:50.227Z,17.90
2019-02-19T09:02:50.181Z,16.80
2019-02-19T09:03:50.164Z,17.50
2019-02-19T09:04:50.100Z,16.50
2019-02-19T09:05:50.072Z,16.40
2019-02-19T09:06:50.030Z,16.60
2019-02-19T09:07:49.990Z,15.30
2019-02-19T09:08:49.978Z,15.20
2019-02-19T09:09:49.909Z,15.10
2019-02-19T09:10:49.872Z,15.20
2019-02-19T09:11:49.834Z,14.60
2019-02-19T09:12:49.791Z,15.20
2019-02-19T09:13:49.762Z,15.00
2019-02-19T09:14:49.757Z,14.50
2019-02-19T09:15:49.686Z,14.50
2019-02-19T09:16:49.648Z,14.90
2019-02-19T09:17:52.076Z,13.90
2019-02-19T09:18:51.073Z,14.40
2019-02-19T09:19:49.549Z,14.10
2019-02-19T09:20:49.531Z,14.80
2019-02-19T09:21:49.468Z,14.20
2019-02-19T09:22:49.458Z,13.70
2019-02-19T09:23:49.420Z,12.70
2019-02-19T09:24:49.366Z,13.50
2019-02-19T09:25:49.328Z,13.10
2019-02-19T09:26:49.295Z,12.90
2019-02-19T09:27:49.250Z,11.30
2019-02-19T09:28:49.217Z,12.40
2019-02-19T09:29:49.211Z,11.90
2019-02-19T09:30:49.137Z,12.50
2019-02-19T09:31:49.105Z,12.50
2019-02-19T09:32:49.073Z,12.00
2019-02-19T09:33:49.038Z,11.70
2019-02-19T09:34:49.026Z,11.40
2019-02-19T09:35:48.954Z,11.30
2019-02-19T09:36:48.923Z,10.70
2019-02-19T09:37:48.893Z,10.70
2019-02-19T09:38:48.853Z,10.00
2019-02-19T09:39:48.850Z,10.30
2019-02-19T09:40:48.781Z,10.10
2019-02-19T09:41:48.739Z,10.20
2019-02-19T09:42:48.708Z,10.70
2019-02-19T09:43:48.715Z,10.60
2019-02-19T09:44:48.649Z,10.30
2019-02-19T09:45:48.603Z,10.20
2019-02-19T09:46:48.572Z,10.40
2019-02-19T09:47:48.551Z,9.90
2019-02-19T09:48:48.484Z,10.00
2019-02-19T09:49:48.496Z,9.60
2019-02-19T09:50:48.423Z,9.30
2019-02-19T09:51:48.393Z,9.40
2019-02-19T09:52:48.359Z,9.20
2019-02-19T09:53:48.326Z,9.10
2019-02-19T09:54:48.289Z,8.60
2019-02-19T09:55:48.261Z,8.90
2019-02-19T09:56:48.209Z,8.50
2019-02-19T09:57:48.177Z,8.40
2019-02-19T09:58:48.150Z,8.50
2019-02-19T09:59:48.104Z,8.30
2019-02-19T10:00:48.102Z,8.40
2019-02-19T10:01:48.034Z,8.00
2019-02-19T10:02:48.002Z,7.80
2019-02-19T10:03:47.974Z,7.80
2019-02-19T10:04:47.930Z,7.60
2019-02-19T10:05:48.191Z,7.40
2019-02-19T10:06:47.891Z,7.30
2019-02-19T10:07:47.829Z,7.20
2019-02-19T10:08:47.783Z,7.50
2019-02-19T10:09:47.770Z,7.30
2019-02-19T10:10:47.736Z,7.40
2019-02-19T10:11:47.695Z,7.20
2019-02-19T10:12:47.715Z,7.00
2019-02-19T10:13:47.620Z,7.40
2019-02-19T10:14:47.590Z,6.80
2019-02-19T10:15:47.561Z,7.40
2019-02-19T10:16:47.514Z,6.90
2019-02-19T10:17:47.496Z,7.60
2019-02-19T10:18:47.467Z,7.20
2019-02-19T10:19:47.411Z,6.80
2019-02-19T10:20:47.370Z,7.20
2019-02-19T10:21:47.343Z,7.10
2019-02-19T10:22:47.328Z,7.70
2019-02-19T10:23:47.270Z,8.10
2019-02-19T10:24:47.237Z,7.50
2019-02-19T10:25:47.191Z,7.80
2019-02-19T10:26:47.173Z,7.80
2019-02-19T10:27:47.145Z,7.50
2019-02-19T10:28:47.109Z,7.60
2019-02-19T10:29:47.067Z,7.80
2019-02-19T10:30:47.017Z,7.70
2019-02-19T10:31:46.987Z,7.50
2019-02-19T10:32:46.944Z,6.70
2019-02-19T10:33:46.927Z,7.50
2019-02-19T10:34:46.913Z,7.20
2019-02-19T10:35:46.835Z,7.30
2019-02-19T10:36:46.799Z,7.50
2019-02-19T10:37:46.761Z,7.50
2019-02-19T10:38:46.743Z,7.30
2019-02-19T10:39:46.684Z,7.40
2019-02-19T10:40:46.643Z,7.60
2019-02-19T10:41:46.624Z,7.50
2019-02-19T10:42:46.601Z,7.10
2019-02-19T10:43:46.574Z,7.20
2019-02-19T10:44:46.508Z,7.50
2019-02-19T10:45:46.477Z,7.40
2019-02-19T10:46:46.430Z,6.90
2019-02-19T10:47:46.405Z,7.90
2019-02-19T10:48:46.380Z,7.60
2019-02-19T10:49:46.332Z,6.80
2019-02-19T10:50:46.299Z,6.90
2019-02-19T10:51:46.281Z,6.90
2019-02-19T10:52:46.224Z,7.50
2019-02-19T10:53:46.193Z,7.10
2019-02-19T10:54:46.180Z,7.60
2019-02-19T10:55:46.115Z,7.90
2019-02-19T10:56:46.081Z,7.70
2019-02-19T10:57:46.042Z,7.60
2019-02-19T10:58:46.011Z,7.30
2019-02-19T10:59:46.013Z,6.90
2019-02-19T11:00:45.942Z,7.20
2019-02-19T11:01:45.910Z,7.80
2019-02-19T11:02:45.864Z,7.20
2019-02-19T11:03:45.850Z,7.50
2019-02-19T11:04:45.832Z,7.60
2019-02-19T11:05:45.768Z,7.80
2019-02-19T11:06:45.739Z,7.80
2019-02-19T11:07:45.694Z,7.40
2019-02-19T11:08:45.650Z,7.50
2019-02-19T11:09:45.605Z,7.40
2019-02-19T11:10:45.594Z,6.90
2019-02-19T11:11:45.539Z,7.50
2019-02-19T11:12:45.495Z,6.40
2019-02-19T11:13:45.462Z,7.20
2019-02-19T11:14:45.427Z,7.20
2019-02-19T11:15:45.415Z,7.10
2019-02-19T11:16:45.366Z,7.10
2019-02-19T11:17:45.316Z,7.20
2019-02-19T11:18:45.274Z,6.80
2019-02-19T11:19:45.229Z,7.30
2019-02-19T11:20:45.223Z,7.40
2019-02-19T11:21:45.174Z,7.50
2019-02-19T11:22:45.116Z,6.90
2019-02-19T11:23:45.073Z,7.10
2019-02-19T11:24:45.044Z,6.70
2019-02-19T11:25:45.031Z,7.00
2019-02-19T11:26:44.999Z,7.40
2019-02-19T11:27:44.928Z,6.70
2019-02-19T11:28:54.123Z,7.30
2019-02-19T11:29:54.168Z,7.20
2019-02-19T11:30:53.721Z,7.40
2019-02-19T11:31:53.730Z,7.70
2019-02-19T11:32:44.731Z,7.70
2019-02-19T11:33:53.733Z,8.00
2019-02-19T11:34:53.756Z,8.00
2019-02-19T11:35:54.855Z,7.10
2019-02-19T11:36:53.327Z,7.60
2019-02-19T11:37:53.833Z,7.60
2019-02-19T11:38:53.860Z,7.50
2019-02-19T11:39:53.880Z,7.30
2019-02-19T11:40:44.409Z,7.40
2019-02-19T11:41:52.941Z,7.70
2019-02-19T11:42:44.336Z,7.90
2019-02-19T11:43:44.291Z,7.60
2019-02-19T11:44:44.255Z,8.00
2019-02-19T11:45:44.215Z,7.60
2019-02-19T11:46:44.197Z,8.40
2019-02-19T11:47:44.132Z,8.10
2019-02-19T11:48:44.094Z,8.20
2019-02-19T11:49:44.063Z,8.50
2019-02-19T11:50:44.012Z,8.50
2019-02-19T11:51:44.024Z,8.00
2019-02-19T11:52:43.958Z,8.20
2019-02-19T11:53:43.910Z,7.80
2019-02-19T11:54:43.867Z,7.50
2019-02-19T11:55:43.828Z,7.40
2019-02-19T11:56:43.821Z,7.10
2019-02-19T11:57:43.733Z,6.90
2019-02-19T11:58:43.696Z,6.40
2019-02-19T11:59:43.662Z,6.30
2019-02-19T12:00:43.619Z,6.00
2019-02-19T12:01:43.578Z,6.40
2019-02-19T12:02:43.565Z,7.00
2019-02-19T12:03:43.496Z,6.90
2019-02-19T12:04:43.464Z,7.00
2019-02-19T12:05:43.424Z,6.60
2019-02-19T12:06:43.420Z,7.20
2019-02-19T12:07:43.346Z,7.10
2019-02-19T12:08:43.309Z,7.00
2019-02-19T12:09:43.292Z,6.80
2019-02-19T12:10:43.245Z,6.90
2019-02-19T12:11:43.191Z,7.60
2019-02-19T12:12:43.149Z,7.70
2019-02-19T12:13:43.111Z,8.00
2019-02-19T12:14:43.092Z,7.70
2019-02-19T12:15:43.046Z,7.30
2019-02-19T12:16:43.001Z,7.30
2019-02-19T12:17:42.946Z,6.80
2019-02-19T12:18:46.133Z,6.60
2019-02-19T12:19:42.890Z,6.70
2019-02-19T12:20:42.832Z,6.60
2019-02-19T12:21:42.793Z,6.60
2019-02-19T12:22:42.751Z,6.50
2019-02-19T12:23:42.703Z,6.30
2019-02-19T12:24:42.701Z,6.30
2019-02-19T12:25:42.645Z,5.70
2019-02-19T12:26:42.608Z,5.70
2019-02-19T12:27:42.585Z,5.50
2019-02-19T12:28:42.545Z,5.80
2019-02-19T12:29:42.475Z,5.50
2019-02-19T12:30:42.434Z,5.50
2019-02-19T12:31:42.389Z,5.20
2019-02-19T12:32:42.357Z,5.40
2019-02-19T12:33:42.322Z,5.40
2019-02-19T12:34:42.304Z,5.50
2019-02-19T12:35:42.237Z,5.50
2019-02-19T12:36:42.189Z,5.10
2019-02-19T12:37:42.154Z,5.30
2019-02-19T12:38:42.123Z,5.30
2019-02-19T12:39:42.100Z,5.40
2019-02-19T12:40:42.037Z,5.30
2019-02-19T12:41:41.989Z,5.10
2019-02-19T12:42:41.954Z,4.60
2019-02-19T12:43:41.913Z,4.60
2019-02-19T12:44:41.894Z,4.70
2019-02-19T12:45:41.836Z,4.80
2019-02-19T12:46:41.796Z,4.90
2019-02-19T12:47:41.749Z,4.80
2019-02-19T12:48:41.776Z,4.20
2019-02-19T12:49:41.693Z,4.40
2019-02-19T12:50:41.628Z,8.60
2019-02-19T12:51:41.619Z,5.10
2019-02-19T12:52:41.559Z,4.30
2019-02-19T12:53:41.518Z,6.30
2019-02-19T12:54:41.471Z,5.20
2019-02-19T12:55:41.442Z,4.60
2019-02-19T12:56:41.399Z,4.90
2019-02-19T12:57:41.379Z,4.40
2019-02-19T12:58:41.325Z,4.70
2019-02-19T12:59:41.279Z,4.40
2019-02-19T13:00:41.271Z,4.20
2019-02-19T13:01:41.187Z,4.30
2019-02-19T13:02:41.154Z,4.40